地図

経路データ

SID SEASON NUMBER BASIN SUBBASIN NAME ISO_TIME NATURE LAT LON WMO_WIND WMO_PRES WMO_AGENCY TRACK_TYPE DIST2LAND LANDFALL IFLAG USA_AGENCY USA_ATCF_ID USA_LAT USA_LON USA_RECORD USA_STATUS USA_WIND USA_PRES USA_SSHS USA_R34_NE USA_R34_SE USA_R34_SW USA_R34_NW USA_R50_NE USA_R50_SE USA_R50_SW USA_R50_NW USA_R64_NE USA_R64_SE USA_R64_SW USA_R64_NW USA_POCI USA_ROCI USA_RMW USA_EYE TOKYO_LAT TOKYO_LON TOKYO_GRADE TOKYO_WIND TOKYO_PRES TOKYO_R50_DIR TOKYO_R50_LONG TOKYO_R50_SHORT TOKYO_R30_DIR TOKYO_R30_LONG TOKYO_R30_SHORT TOKYO_LAND CMA_LAT CMA_LON CMA_CAT CMA_WIND CMA_PRES HKO_LAT HKO_LON HKO_CAT HKO_WIND HKO_PRES NEWDELHI_LAT NEWDELHI_LON NEWDELHI_GRADE NEWDELHI_WIND NEWDELHI_PRES NEWDELHI_CI NEWDELHI_DP NEWDELHI_POCI REUNION_LAT REUNION_LON REUNION_TYPE REUNION_WIND REUNION_PRES REUNION_TNUM REUNION_CI REUNION_RMW REUNION_R34_NE REUNION_R34_SE REUNION_R34_SW REUNION_R34_NW REUNION_R50_NE REUNION_R50_SE REUNION_R50_SW REUNION_R50_NW REUNION_R64_NE REUNION_R64_SE REUNION_R64_SW REUNION_R64_NW BOM_LAT BOM_LON BOM_TYPE BOM_WIND BOM_PRES BOM_TNUM BOM_CI BOM_RMW BOM_R34_NE BOM_R34_SE BOM_R34_SW BOM_R34_NW BOM_R50_NE BOM_R50_SE BOM_R50_SW BOM_R50_NW BOM_R64_NE BOM_R64_SE BOM_R64_SW BOM_R64_NW BOM_ROCI BOM_POCI BOM_EYE BOM_POS_METHOD BOM_PRES_METHOD NADI_LAT NADI_LON NADI_CAT NADI_WIND NADI_PRES WELLINGTON_LAT WELLINGTON_LON WELLINGTON_WIND WELLINGTON_PRES DS824_LAT DS824_LON DS824_STAGE DS824_WIND DS824_PRES TD9636_LAT TD9636_LON TD9636_STAGE TD9636_WIND TD9636_PRES TD9635_LAT TD9635_LON TD9635_WIND TD9635_PRES TD9635_ROCI NEUMANN_LAT NEUMANN_LON NEUMANN_CLASS NEUMANN_WIND NEUMANN_PRES MLC_LAT MLC_LON MLC_CLASS MLC_WIND MLC_PRES USA_GUST BOM_GUST BOM_GUST_PER REUNION_GUST REUNION_GUST_PER USA_SEAHGT USA_SEARAD_NE USA_SEARAD_SE USA_SEARAD_SW USA_SEARAD_NW STORM_SPEED STORM_DIR
1959109S12076 1959 32 SI MM NOT_NAMED 1959-04-18 18:00:00 TS -11.7000 75.8000 main 2042 2042 O________OO___ jtwc_sh SH301959 -11.7000 75.8000 -1 -11.7000 75.8000 TC -11.7000 75.8000 7 2 203
1959109S12076 1959 32 SI MM NOT_NAMED 1959-04-18 21:00:00 TS -11.7965 75.7670 main 2053 2053 P________PP___ SH301959 -11.7825 75.7975 -1 -11.7825 75.7975 TC -11.8246 75.7059 7 3 213
1959109S12076 1959 32 SI MM NOT_NAMED 1959-04-19 00:00:00 TS -11.9198 75.6565 main 2066 2066 O________OP___ jtwc_sh SH301959 -11.9000 75.7000 -1 -11.9000 75.7000 TC -11.9593 75.5695 7 5 230
1959109S12076 1959 32 SI MM NOT_NAMED 1959-04-19 03:00:00 TS -12.0898 75.4044 main 2089 2040 P________PP___ SH301959 -12.0774 75.4324 -1 -12.0774 75.4324 TC -12.1145 75.3484 7 7 239
1959109S12076 1959 32 SI MM NOT_NAMED 1959-04-19 06:00:00 TS -12.3000 75.0000 main 2040 1982 O________OO___ jtwc_sh SH301959 -12.3000 75.0000 -1 -12.3000 75.0000 TC 25 -12.3000 75.0000 7 10 244
1959109S12076 1959 32 SI MM NOT_NAMED 1959-04-19 09:00:00 TS -12.5356 74.4625 main 1982 1908 P________PP___ SH301959 -12.5425 74.4450 -1 -12.5425 74.4450 TC 25 -12.5218 74.4974 7 12 247
1959109S12076 1959 32 SI MM NOT_NAMED 1959-04-19 12:00:00 TS -12.7903 73.8259 main 1899 1831 O________OP___ jtwc_sh SH301959 -12.8000 73.8000 -1 -12.8000 73.8000 TC 25 -12.7708 73.8778 7 14 248
1959109S12076 1959 32 SI MM NOT_NAMED 1959-04-19 15:00:00 TS -13.0447 73.1647 main 1831 1748 P________PP___ SH301959 -13.0499 73.1499 -1 -13.0499 73.1499 TC 25 -13.0342 73.1941 7 14 248
1959109S12076 1959 32 SI MM NOT_NAMED 1959-04-19 18:00:00 TS -13.3000 72.5000 main 1748 1681 O________OO___ jtwc_sh SH301959 -13.3000 72.5000 -1 -13.3000 72.5000 TC 25 -13.3000 72.5000 7 13 248
1959109S12076 1959 32 SI MM NOT_NAMED 1959-04-19 21:00:00 TS -13.5401 71.8979 main 1681 1608 P________PP___ SH301959 -13.5497 71.8998 -1 -13.5497 71.8998 TC 25 -13.5208 71.8941 7 13 248
1959109S12076 1959 32 SI MM NOT_NAMED 1959-04-20 00:00:00 TS -13.7821 71.2952 main 1608 1540 O________OP___ jtwc_sh SH301959 -13.8000 71.3000 -1 -13.8000 71.3000 TC 25 -13.7463 71.2855 7 13 248
1959109S12076 1959 32 SI MM NOT_NAMED 1959-04-20 03:00:00 TS -14.0228 70.6629 main 1540 1444 P________PP___ SH301959 -14.0348 70.6647 -1 -14.0348 70.6647 TC 25 -13.9987 70.6594 7 16 253
1959109S12076 1959 32 SI MM NOT_NAMED 1959-04-20 06:00:00 TS -14.2462 69.7154 reunion main 1435 1343 O____O___OO___ jtwc_sh SH301959 -14.3000 70.0000 -1 -13.6000 66.3000 99 9.90000 -14.3000 70.0000 TC 25 -14.3000 70.0000 7 19 254
1959109S12076 1959 32 SI MM NOT_NAMED 1959-04-20 09:00:00 TS -14.5503 68.8155 main 1328 1237 P____P___PP___ SH301959 -14.6122 69.3221 -1 -14.1181 65.8899 99 -14.6122 69.3221 TC 25 -14.6425 69.2652 7 18 248
1959109S12076 1959 32 SI MM NOT_NAMED 1959-04-20 12:00:00 TS -14.9381 67.9514 main 1237 1134 O____P___OP___ jtwc_sh SH301959 -15.0000 68.6000 -1 -14.6399 65.4913 99 -15.0000 68.6000 TC 25 -15.0380 68.4992 7 19 243
1959109S12076 1959 32 SI MM NOT_NAMED 1959-04-20 15:00:00 TS -15.3923 67.1127 main 1125 1042 P____P___PP___ SH301959 -15.4550 67.7998 -1 -15.1697 65.1176 99 -15.4550 67.7998 TC 30 -15.4894 67.7336 7 18 236
1959109S12076 1959 32 SI MM NOT_NAMED 1959-04-20 18:00:00 TS -15.9280 66.4456 main 1032 954 O____P___OO___ jtwc_sh SH301959 -16.0000 67.0000 -1 -15.7121 64.7823 99 -16.0000 67.0000 TC 35 -16.0000 67.0000 2 17 227
1959109S12076 1959 32 SI MM NOT_NAMED 1959-04-20 21:00:00 TS -16.5373 65.8200 main 944 867 P____P___PP___ SH301959 -16.6348 66.2625 -1 -16.2715 64.4991 99 -16.6348 66.2625 TC 35 -16.6082 66.2560 2 17 222
1959109S12076 1959 32 SI MM NOT_NAMED 1959-04-21 00:00:00 TS -17.1796 65.2600 main 862 787 O____P___OP___ jtwc_sh SH301959 -17.3000 65.6000 -1 -16.8528 64.2816 99 -17.3000 65.6000 TC 35 -17.2655 65.5583 2 16 218
1959109S12076 1959 32 SI MM NOT_NAMED 1959-04-21 03:00:00 TS -17.8126 64.7662 main 787 724 P____P___PP___ SH301959 -17.9374 64.9825 -1 -17.4607 64.1439 99 -17.9374 64.9825 TC 50 -17.9148 64.9561 2 15 214
1959109S12076 1959 32 SI MM NOT_NAMED 1959-04-21 06:00:00 TS -18.4000 64.4000 reunion main 724 688 O____O___OO___ jtwc_sh SH301959 -18.5000 64.5000 -1 -18.1000 64.1000 99 9.90000 -18.5000 64.5000 TC 65 -18.5000 64.5000 4 12 208
1959109S12076 1959 32 SI MM NOT_NAMED 1959-04-21 09:00:00 TS -18.8969 64.1682 main 688 668 P____P___PP___ SH301959 -18.9373 64.1597 -1 -18.7719 64.1590 99 -18.9373 64.1597 TC 65 -18.9413 64.1945 4 10 197
1959109S12076 1959 32 SI MM NOT_NAMED 1959-04-21 12:00:00 TS -19.3445 64.0878 main 668 660 O____P___OP___ jtwc_sh SH301959 -19.3000 64.0000 -1 -19.4624 64.3079 99 -19.3000 64.0000 TC 65 -19.3157 64.0432 4 9 182
1959109S12076 1959 32 SI MM NOT_NAMED 1959-04-21 15:00:00 TS -19.7778 64.1394 main 660 660 P____P___PP___ SH301959 -19.6500 64.0047 -1 -20.1539 64.5277 99 -19.6500 64.0047 TC 65 -19.6573 64.0204 4 9 168
1959109S12076 1959 32 SI MM NOT_NAMED 1959-04-21 18:00:00 TS -20.2071 64.2748 main 678 677 O____P___OO___ jtwc_sh SH301959 -20.0000 64.1000 -1 -20.8283 64.7992 99 -20.0000 64.1000 TC 65 -20.0000 64.1000 4 9 167
1959109S12076 1959 32 SI MM NOT_NAMED 1959-04-21 21:00:00 TS -20.6580 64.3615 main 688 688 P____P___PP___ SH301959 -20.3923 64.0979 -1 -21.4679 65.1027 99 -20.3923 64.0979 TC 65 -20.3795 64.1476 4 9 165
1959109S12076 1959 32 SI MM NOT_NAMED 1959-04-22 00:00:00 TS -21.1057 64.5288 main 702 702 O____P___OP___ jtwc_sh SH301959 -20.8000 64.2000 -1 -22.0548 65.4179 99 -20.8000 64.2000 TC 65 -20.7680 64.2974 4 10 154
1959109S12076 1959 32 SI MM NOT_NAMED 1959-04-22 03:00:00 TS -21.5320 64.8221 main 739 739 P____P___PP___ SH301959 -21.1922 64.4954 -1 -22.5713 65.7241 99 -21.1922 64.4954 TC 65 -21.1726 64.5735 4 11 142
1959109S12076 1959 32 SI MM NOT_NAMED 1959-04-22 06:00:00 TS -21.9500 65.2500 reunion main 798 787 O____O___OO___ jtwc_sh SH301959 -21.6000 65.0000 -1 -23.0000 66.0000 99 9.90000 -21.6000 65.0000 TC 65 -21.6000 65.0000 4 12 133
1959109S12076 1959 32 SI MM NOT_NAMED 1959-04-22 09:00:00 TS -22.3706 65.8052 main 860 860 P____P___PP___ SH301959 -22.0353 65.6976 -1 -23.3287 66.2286 99 -22.0353 65.6976 TC 50 -22.0833 65.5969 4 14 127
1959109S12076 1959 32 SI MM NOT_NAMED 1959-04-22 12:00:00 TS -22.7869 66.4377 main 931 931 O____P___OP___ jtwc_sh SH301959 -22.5000 66.5000 -1 -23.5658 66.4113 99 -22.5000 66.5000 TC 35 -22.5819 66.3395 4 14 126
1959109S12076 1959 32 SI MM NOT_NAMED 1959-04-22 15:00:00 TS -23.2045 67.0543 main 1013 1013 P____P___PP___ SH301959 -23.0146 67.2500 -1 -23.7244 66.5542 99 -23.0146 67.2500 TC 30 -23.0643 67.1628 4 14 125
1959109S12076 1959 32 SI MM NOT_NAMED 1959-04-22 18:00:00 TS -23.5794 67.6659 main 1084 1084 O____P___OO___ jtwc_sh SH301959 -23.5000 68.0000 -1 -23.8177 66.6638 99 -23.5000 68.0000 TC 25 -23.5000 68.0000 7 13 121
1959109S12076 1959 32 SI MM NOT_NAMED 1959-04-22 21:00:00 TS -23.8752 68.2610 main 1153 1153 P____P___PP___ SH301959 -23.8871 68.7505 -1 -23.8589 66.7464 99 -23.8871 68.7505 TC 25 -23.8677 68.7967 7 12 116
1959109S12076 1959 32 SI MM NOT_NAMED 1959-04-23 00:00:00 TS -24.1098 68.8404 main 1208 1208 O____P___OP___ jtwc_sh SH301959 -24.2000 69.5000 -1 -23.8610 66.8089 99 -24.2000 69.5000 TC 25 -24.1781 69.5528 7 11 112
1959109S12076 1959 32 SI MM NOT_NAMED 1959-04-23 03:00:00 TS -24.3033 69.4098 main 1273 1273 P____P___PP___ SH301959 -24.4632 70.2494 -1 -23.8370 66.8578 99 -24.4632 70.2494 TC 25 -24.4496 70.2824 7 11 109
1959109S12076 1959 32 SI MM NOT_NAMED 1959-04-23 06:00:00 TS -24.4750 69.9750 reunion main 1338 O____O___OO___ jtwc_sh SH301959 -24.7000 71.0000 -1 -23.8000 66.9000 99 9.90000 -24.7000 71.0000 TC 25 -24.7000 71.0000 7 11 108

IBTrACS Databaseについて

本データベースは、米国NOAAが公開する1842年以降の世界の熱帯低気圧のベストトラックデータアーカイブInternational Best Track Archive for Climate Stewardship (IBTrACS)を、ウェブで閲覧しやすい形式に変換したものです。

最終更新日:2021-11-26